Time;durP1;ratioP1;P1;durP2;ratioP2;P2;SDS_P1;SDS_P2;PMS_P1;PMS_P2;Temp;Humidity;BMP_temperature;BMP_pressure;BME280_temperature;BME280_humidity;BME280_pressure;Samples;Min_cycle;Max_cycle;Signal;HPM_P1;HPM_P2
2022/07/24 00:00:40;;;;;;;6.82;4.05;;;16.30;99.90;;;;;;5110413;28;20594;-51
2022/07/24 00:03:09;;;;;;;7.15;4.35;;;16.30;99.90;;;;;;5110334;28;20320;-50
2022/07/24 00:05:37;;;;;;;5.35;3.85;;;16.30;99.90;;;;;;5110186;28;20971;-52
2022/07/24 00:08:06;;;;;;;4.50;3.72;;;16.20;99.90;;;;;;5110571;28;20204;-51
2022/07/24 00:10:34;;;;;;;4.90;3.90;;;16.20;99.90;;;;;;5111162;28;20200;-51
2022/07/24 00:13:03;;;;;;;6.13;4.15;;;16.20;99.90;;;;;;5110407;28;20294;-51
2022/07/24 00:15:31;;;;;;;4.53;3.80;;;16.20;99.90;;;;;;5109912;28;20252;-51
2022/07/24 00:17:59;;;;;;;6.43;3.92;;;16.10;99.90;;;;;;5109942;28;20227;-51
2022/07/24 00:20:27;;;;;;;5.07;4.00;;;16.00;99.90;;;;;;5110498;28;20272;-51
2022/07/24 00:22:55;;;;;;;5.43;4.50;;;16.00;99.90;;;;;;5109851;28;20211;-51
2022/07/24 00:25:25;;;;;;;4.40;4.00;;;15.90;99.90;;;;;;5110534;28;20336;-51
2022/07/24 00:27:53;;;;;;;7.05;4.22;;;15.80;99.90;;;;;;5110218;28;20203;-51
2022/07/24 00:30:21;;;;;;;4.93;3.58;;;15.90;99.90;;;;;;5110534;28;20253;-51
2022/07/24 00:32:49;;;;;;;9.02;5.60;;;15.90;99.90;;;;;;5108021;28;20207;-51
2022/07/24 00:35:18;;;;;;;6.53;4.35;;;15.80;99.90;;;;;;5110150;28;20245;-51
2022/07/24 00:37:47;;;;;;;7.72;4.75;;;15.80;99.90;;;;;;5109911;28;20684;-51
2022/07/24 00:40:15;;;;;;;7.25;4.32;;;15.80;99.90;;;;;;5109855;28;20732;-51
2022/07/24 00:42:45;;;;;;;5.18;4.65;;;15.80;99.90;;;;;;5110251;28;20276;-50
2022/07/24 00:45:13;;;;;;;7.90;4.57;;;15.80;99.90;;;;;;5110285;28;20211;-51
2022/07/24 00:47:52;;;;;;;4.80;4.18;;;15.80;99.90;;;;;;5110500;28;20543;-51
2022/07/24 00:50:24;;;;;;;5.00;4.43;;;15.70;99.90;;;;;;5109986;28;20257;-51
2022/07/24 00:52:53;;;;;;;5.88;4.15;;;15.70;99.90;;;;;;5109488;28;20211;-51
2022/07/24 00:55:22;;;;;;;5.25;4.15;;;15.60;99.90;;;;;;5109935;28;20617;-51
2022/07/24 00:57:52;;;;;;;4.18;3.70;;;15.60;99.90;;;;;;5109762;28;20280;-51
2022/07/24 01:00:21;;;;;;;4.70;4.18;;;15.50;99.90;;;;;;5110151;28;20252;-50
2022/07/24 01:02:50;;;;;;;6.22;4.00;;;15.50;99.90;;;;;;5109223;28;20621;-51
2022/07/24 01:05:19;;;;;;;7.00;4.10;;;15.50;99.90;;;;;;5109753;28;20257;-51
2022/07/24 01:07:47;;;;;;;4.40;4.00;;;15.50;99.90;;;;;;5109082;28;20203;-51
2022/07/24 01:10:16;;;;;;;4.82;3.88;;;15.40;99.90;;;;;;5109886;28;20261;-50
2022/07/24 01:12:44;;;;;;;9.48;4.13;;;15.40;99.90;;;;;;5109791;28;20630;-50
2022/07/24 01:15:14;;;;;;;4.75;4.13;;;15.40;99.90;;;;;;5109719;28;20553;-50
2022/07/24 01:17:43;;;;;;;4.22;3.83;;;15.30;99.90;;;;;;5109434;28;20631;-50
2022/07/24 01:20:12;;;;;;;5.80;4.40;;;15.30;99.90;;;;;;5109381;28;20219;-51
2022/07/24 01:22:41;;;;;;;5.07;4.07;;;15.30;99.90;;;;;;5109547;28;20214;-50
2022/07/24 01:25:10;;;;;;;4.80;3.97;;;15.30;99.90;;;;;;5095477;28;20219;-51
2022/07/24 01:27:39;;;;;;;6.80;4.60;;;15.30;99.90;;;;;;5111340;28;20246;-51
2022/07/24 01:30:08;;;;;;;6.40;4.10;;;15.20;99.90;;;;;;5113370;28;20208;-51
2022/07/24 01:32:37;;;;;;;4.97;3.92;;;15.20;99.90;;;;;;5113290;28;20207;-51
2022/07/24 01:35:06;;;;;;;4.07;3.72;;;15.20;99.90;;;;;;5113975;28;20203;-51
2022/07/24 01:37:34;;;;;;;4.65;4.25;;;15.20;99.90;;;;;;5112760;28;20277;-50
2022/07/24 01:40:05;;;;;;;7.43;3.90;;;15.10;99.90;;;;;;5113620;28;20264;-51
2022/07/24 01:42:33;;;;;;;4.30;3.90;;;15.10;99.90;;;;;;5113695;28;20313;-51
2022/07/24 01:45:01;;;;;;;5.22;3.67;;;15.10;99.90;;;;;;5113680;28;20203;-51
2022/07/24 01:47:29;;;;;;;4.00;3.67;;;15.20;99.90;;;;;;5112490;28;20219;-51
2022/07/24 01:49:57;;;;;;;6.60;4.30;;;15.10;99.90;;;;;;5113503;28;20203;-51
2022/07/24 01:52:26;;;;;;;5.90;4.03;;;15.10;99.90;;;;;;5113048;28;20207;-51
2022/07/24 01:54:54;;;;;;;5.33;4.00;;;15.10;99.90;;;;;;5113418;28;20253;-51
2022/07/24 01:57:23;;;;;;;6.67;3.90;;;15.10;99.90;;;;;;5112459;28;20265;-51
2022/07/24 01:59:57;;;;;;;6.50;3.70;;;15.00;99.90;;;;;;5113329;28;20213;-50
2022/07/24 02:02:25;;;;;;;5.27;4.03;;;15.00;99.90;;;;;;5112542;28;20211;-51
2022/07/24 02:04:54;;;;;;;5.37;4.07;;;14.90;99.90;;;;;;5112916;28;20217;-50
2022/07/24 02:07:22;;;;;;;5.57;3.90;;;14.90;99.90;;;;;;5112984;28;20265;-50
2022/07/24 02:09:50;;;;;;;5.73;3.83;;;14.80;99.90;;;;;;5112786;28;20203;-51
2022/07/24 02:12:18;;;;;;;5.87;3.83;;;14.90;99.90;;;;;;5112512;28;20249;-51
2022/07/24 02:14:48;;;;;;;5.73;4.03;;;14.90;99.90;;;;;;5112901;28;20204;-51
2022/07/24 02:17:16;;;;;;;5.10;4.17;;;14.90;99.90;;;;;;5112291;28;20637;-50
2022/07/24 02:19:44;;;;;;;5.37;4.10;;;14.80;99.90;;;;;;5112441;28;20269;-51
2022/07/24 02:22:12;;;;;;;3.97;3.57;;;14.80;99.90;;;;;;5112027;28;20208;-50
2022/07/24 02:24:40;;;;;;;4.63;3.67;;;14.80;99.90;;;;;;5112644;28;20272;-51
2022/07/24 02:27:09;;;;;;;8.13;3.90;;;14.90;99.90;;;;;;5112094;28;20280;-51
2022/07/24 02:29:37;;;;;;;4.97;3.83;;;14.80;99.90;;;;;;5111181;28;20203;-51
2022/07/24 02:32:07;;;;;;;4.30;3.80;;;14.80;99.90;;;;;;5111401;28;20203;-52
2022/07/24 02:34:36;;;;;;;5.23;3.87;;;14.80;99.90;;;;;;5111388;28;20672;-51
2022/07/24 02:37:04;;;;;;;5.73;3.90;;;14.80;99.90;;;;;;5110706;28;20253;-51
2022/07/24 02:39:32;;;;;;;4.40;3.90;;;14.80;99.90;;;;;;5110567;28;20216;-52
2022/07/24 02:42:00;;;;;;;4.83;3.80;;;14.80;99.90;;;;;;5111230;28;20203;-51
2022/07/24 02:44:28;;;;;;;4.50;3.70;;;14.80;99.90;;;;;;5110721;28;20211;-51
2022/07/24 02:46:56;;;;;;;6.13;3.67;;;14.80;99.90;;;;;;5111249;28;20288;-51
2022/07/24 02:49:25;;;;;;;5.00;4.03;;;14.70;99.90;;;;;;5110973;28;20200;-51
2022/07/24 02:51:54;;;;;;;4.43;4.03;;;14.80;99.90;;;;;;5110592;28;20208;-51
2022/07/24 02:54:22;;;;;;;4.18;3.65;;;14.80;99.90;;;;;;5111065;28;20640;-52
2022/07/24 02:56:50;;;;;;;6.00;3.60;;;14.70;99.90;;;;;;5110759;28;20671;-51
2022/07/24 02:59:18;;;;;;;8.23;4.10;;;14.70;99.90;;;;;;5110906;28;20231;-51
2022/07/24 03:01:46;;;;;;;5.13;3.90;;;14.70;99.90;;;;;;5110344;28;20207;-51
2022/07/24 03:04:14;;;;;;;5.67;4.00;;;14.60;99.90;;;;;;5110784;28;20207;-51
2022/07/24 03:06:44;;;;;;;5.40;3.97;;;14.60;99.90;;;;;;5110161;28;20227;-51
2022/07/24 03:09:12;;;;;;;6.23;4.13;;;14.50;99.90;;;;;;5110872;28;20196;-51
2022/07/24 03:11:40;;;;;;;4.20;3.90;;;14.50;99.90;;;;;;5110320;28;20203;-51
2022/07/24 03:14:08;;;;;;;8.37;3.50;;;14.50;99.90;;;;;;5111181;28;20203;-51
2022/07/24 03:16:37;;;;;;;5.33;3.80;;;14.50;99.90;;;;;;5110800;28;20231;-50
2022/07/24 03:19:06;;;;;;;4.53;3.70;;;14.50;99.90;;;;;;5070683;28;1122944;-51
2022/07/24 03:21:35;;;;;;;4.37;3.97;;;14.40;99.90;;;;;;5112027;28;20211;-51
2022/07/24 03:24:19;;;;;;;5.87;4.00;;;14.40;99.90;;;;;;5111305;28;20254;-50
2022/07/24 03:26:47;;;;;;;4.50;3.97;;;14.40;99.90;;;;;;5110890;28;20257;-50
2022/07/24 03:29:16;;;;;;;5.73;3.90;;;14.40;99.90;;;;;;5111116;28;20207;-51
2022/07/24 03:31:44;;;;;;;5.07;4.00;;;14.40;99.90;;;;;;5111745;28;20355;-51
2022/07/24 03:34:12;;;;;;;7.90;3.77;;;14.40;99.90;;;;;;5111263;28;20211;-51
2022/07/24 03:36:40;;;;;;;4.43;3.33;;;14.40;99.90;;;;;;5111218;28;20292;-51
2022/07/24 03:39:08;;;;;;;4.20;3.67;;;14.40;99.90;;;;;;5111157;28;20699;-51
2022/07/24 03:41:38;;;;;;;4.77;4.20;;;14.50;99.90;;;;;;5110970;28;20302;-51
2022/07/24 03:44:07;;;;;;;4.00;3.60;;;14.40;99.90;;;;;;5111332;28;20211;-51
2022/07/24 03:46:35;;;;;;;5.73;4.53;;;14.40;99.90;;;;;;5110812;28;20300;-51
2022/07/24 03:49:03;;;;;;;5.00;3.90;;;14.40;99.90;;;;;;5111360;28;20204;-51
2022/07/24 03:51:32;;;;;;;6.03;4.10;;;14.40;99.90;;;;;;5110366;28;20261;-50
2022/07/24 03:54:02;;;;;;;4.77;4.00;;;14.30;99.90;;;;;;5110848;28;20256;-51
2022/07/24 03:56:30;;;;;;;4.00;3.57;;;14.30;99.90;;;;;;5109850;28;20284;-50
2022/07/24 03:59:00;;;;;;;6.40;4.10;;;14.30;99.90;;;;;;5111132;28;20276;-51
2022/07/24 04:01:29;;;;;;;5.23;3.77;;;14.40;99.90;;;;;;5110729;28;20235;-52
2022/07/24 04:03:58;;;;;;;4.40;3.63;;;14.40;99.90;;;;;;5110703;28;20285;-52
2022/07/24 04:06:26;;;;;;;4.67;3.67;;;14.50;99.90;;;;;;5110672;28;20281;-51
2022/07/24 04:08:54;;;;;;;5.50;3.57;;;14.40;99.90;;;;;;5109948;28;20211;-51
2022/07/24 04:11:22;;;;;;;4.60;4.17;;;14.40;99.90;;;;;;5110935;28;20265;-52
2022/07/24 04:13:50;;;;;;;4.80;3.70;;;14.50;99.90;;;;;;5110793;28;20261;-51
2022/07/24 04:16:20;;;;;;;4.47;3.90;;;14.50;99.90;;;;;;5110744;28;20227;-51
2022/07/24 04:18:49;;;;;;;4.13;3.63;;;14.50;99.90;;;;;;5110231;28;20246;-51
2022/07/24 04:21:17;;;;;;;4.10;3.70;;;14.60;99.90;;;;;;5110391;28;20215;-51
2022/07/24 04:23:45;;;;;;;5.87;4.53;;;14.60;99.90;;;;;;5110685;28;20211;-52
2022/07/24 04:26:13;;;;;;;4.87;4.30;;;15.40;99.90;;;;;;5109627;28;20223;-52
2022/07/24 04:28:42;;;;;;;4.57;3.58;;;16.10;99.90;;;;;;5110811;28;20218;-52
2022/07/24 04:31:10;;;;;;;4.28;3.40;;;16.60;99.90;;;;;;5109794;28;20987;-51
2022/07/24 04:33:39;;;;;;;4.75;3.55;;;17.10;99.90;;;;;;5109929;28;20218;-52
2022/07/24 04:36:08;;;;;;;3.97;3.42;;;17.60;99.90;;;;;;5109241;28;20280;-52
2022/07/24 04:38:40;;;;;;;5.95;3.35;;;18.00;99.90;;;;;;5110200;28;20292;-52
2022/07/24 04:41:08;;;;;;;4.18;3.00;;;18.20;99.90;;;;;;5109994;28;20207;-52
2022/07/24 04:43:36;;;;;;;4.13;2.95;;;18.50;99.90;;;;;;5110263;28;20203;-52
2022/07/24 04:46:04;;;;;;;6.25;3.30;;;18.70;99.90;;;;;;5110197;28;20223;-51
2022/07/24 04:48:33;;;;;;;3.20;2.90;;;18.90;99.90;;;;;;5109707;28;21076;-52
2022/07/24 04:51:02;;;;;;;4.35;3.10;;;19.10;99.90;;;;;;5110678;28;20207;-52
2022/07/24 04:53:31;;;;;;;3.25;2.95;;;19.40;99.90;;;;;;5109884;28;20711;-52
2022/07/24 04:55:59;;;;;;;3.10;2.80;;;19.60;99.90;;;;;;5110686;28;20223;-52
2022/07/24 04:58:27;;;;;;;5.15;3.20;;;20.00;99.90;;;;;;5109999;28;20208;-52
2022/07/24 05:00:55;;;;;;;5.57;2.70;;;20.00;99.90;;;;;;5110210;28;20207;-52
2022/07/24 05:03:24;;;;;;;5.35;3.38;;;19.70;99.90;;;;;;5109825;28;20276;-51
2022/07/24 05:05:52;;;;;;;4.55;3.70;;;19.90;99.90;;;;;;5109740;28;20226;-51
2022/07/24 05:08:21;;;;;;;5.65;3.65;;;20.20;99.90;;;;;;5109705;28;20233;-52
2022/07/24 05:10:50;;;;;;;3.28;3.00;;;20.60;99.90;;;;;;5109835;28;20203;-51
2022/07/24 05:13:18;;;;;;;2.92;2.72;;;21.10;99.90;;;;;;5098294;28;20216;-52
2022/07/24 05:15:46;;;;;;;3.42;3.13;;;21.30;99.90;;;;;;5095265;28;20943;-52
2022/07/24 05:18:14;;;;;;;4.15;2.95;;;21.40;99.90;;;;;;5109783;28;20211;-52
2022/07/24 05:20:43;;;;;;;3.53;2.63;;;21.60;99.90;;;;;;5108512;28;20235;-52
2022/07/24 05:23:11;;;;;;;3.33;2.58;;;21.90;99.90;;;;;;5109483;28;20273;-52
2022/07/24 05:25:40;;;;;;;3.10;2.60;;;22.30;99.90;;;;;;5109495;28;20713;-52
2022/07/24 05:28:16;;;;;;;4.15;2.65;;;22.70;99.90;;;;;;5109093;28;20307;-51
2022/07/24 05:30:44;;;;;;;3.58;2.92;;;23.10;99.90;;;;;;5109388;28;20621;-52
2022/07/24 05:33:12;;;;;;;4.20;2.80;;;23.40;99.90;;;;;;5108843;28;20216;-51
2022/07/24 05:35:40;;;;;;;3.05;2.80;;;23.80;99.90;;;;;;5109020;28;20288;-51
2022/07/24 05:38:09;;;;;;;2.88;2.60;;;24.20;99.90;;;;;;5108627;28;20623;-52
2022/07/24 05:40:37;;;;;;;4.25;2.67;;;24.20;99.90;;;;;;5108622;28;20231;-53
2022/07/24 05:43:06;;;;;;;2.60;2.40;;;24.30;99.90;;;;;;5090007;28;20204;-52
2022/07/24 05:45:35;;;;;;;3.72;2.70;;;24.30;99.90;;;;;;5107931;28;20253;-52
2022/07/24 05:48:04;;;;;;;5.97;2.92;;;24.20;99.90;;;;;;5109513;28;20271;-51
2022/07/24 05:50:32;;;;;;;2.92;2.63;;;24.00;99.90;;;;;;5108868;28;20208;-51
2022/07/24 05:53:00;;;;;;;4.63;2.80;;;23.70;99.90;;;;;;5112251;28;20215;-51
2022/07/24 05:55:29;;;;;;;3.63;2.78;;;23.60;99.90;;;;;;5115263;28;20215;-51
2022/07/24 05:57:57;;;;;;;2.88;2.55;;;23.50;99.90;;;;;;5115839;28;20253;-52
2022/07/24 06:00:26;;;;;;;4.75;2.80;;;23.70;99.90;;;;;;5108832;28;20650;-52
2022/07/24 06:02:55;;;;;;;5.20;2.58;;;24.10;99.90;;;;;;5108835;28;20215;-52
2022/07/24 06:05:23;;;;;;;2.67;2.47;;;24.40;99.90;;;;;;5109001;28;20216;-52
2022/07/24 06:07:51;;;;;;;3.45;2.70;;;24.60;99.90;;;;;;5108305;28;20211;-52
2022/07/24 06:10:19;;;;;;;2.72;2.53;;;24.90;99.90;;;;;;5109385;28;20211;-52
2022/07/24 06:12:52;;;;;;;2.45;2.25;;;25.20;99.90;;;;;;5108915;28;20207;-52
2022/07/24 06:15:21;;;;;;;2.63;2.42;;;25.30;99.90;;;;;;5112794;28;20268;-52
2022/07/24 06:17:51;;;;;;;4.72;2.70;;;25.80;99.90;;;;;;5112333;28;20629;-52
2022/07/24 06:20:19;;;;;;;2.65;2.40;;;25.80;99.90;;;;;;5111976;28;20219;-51
2022/07/24 06:22:47;;;;;;;4.30;3.03;;;25.90;99.90;;;;;;5112401;28;20211;-52
2022/07/24 06:25:17;;;;;;;3.20;2.90;;;26.10;99.90;;;;;;5112407;28;20199;-52
2022/07/24 06:27:47;;;;;;;3.03;2.75;;;26.30;99.90;;;;;;5112021;28;20683;-52
2022/07/24 06:30:16;;;;;;;3.63;3.33;;;26.50;99.90;;;;;;5112241;28;20836;-52
2022/07/24 06:32:44;;;;;;;3.42;3.13;;;26.30;99.90;;;;;;5112003;28;20575;-52
2022/07/24 06:35:14;;;;;;;4.82;3.35;;;26.60;99.90;;;;;;5112269;28;20207;-52
2022/07/24 06:37:43;;;;;;;4.63;3.30;;;26.90;99.90;;;;;;5112010;28;20215;-52
2022/07/24 06:40:16;;;;;;;3.90;3.47;;;27.00;99.90;;;;;;5112219;28;20700;-52
2022/07/24 06:42:44;;;;;;;4.38;3.50;;;27.00;99.90;;;;;;5112196;28;20210;-52
2022/07/24 06:45:13;;;;;;;4.57;3.75;;;27.10;99.90;;;;;;5112242;28;20204;-52
2022/07/24 06:47:42;;;;;;;5.97;3.90;;;27.30;99.90;;;;;;5112059;28;20977;-52
2022/07/24 06:50:11;;;;;;;4.03;3.40;;;27.30;99.90;;;;;;5112502;28;20199;-52
2022/07/24 06:52:40;;;;;;;5.25;4.25;;;27.50;99.90;;;;;;5111616;28;20559;-52
2022/07/24 06:55:09;;;;;;;4.30;3.92;;;27.80;99.90;;;;;;5112545;28;20268;-53
2022/07/24 06:57:38;;;;;;;4.63;4.05;;;28.00;99.90;;;;;;5111633;28;20273;-52
2022/07/24 07:00:08;;;;;;;3.95;3.50;;;28.00;99.90;;;;;;5111921;28;20724;-52
2022/07/24 07:02:37;;;;;;;6.30;3.42;;;27.90;99.90;;;;;;5112189;28;20203;-53
2022/07/24 07:05:06;;;;;;;3.83;3.40;;;27.70;99.90;;;;;;5111562;28;20207;-52
2022/07/24 07:07:36;;;;;;;3.40;3.05;;;27.70;99.90;;;;;;5111701;28;20219;-52
2022/07/24 07:10:07;;;;;;;5.13;3.08;;;27.90;99.90;;;;;;5111991;28;20920;-52
2022/07/24 07:12:50;;;;;;;6.30;2.75;;;28.20;99.90;;;;;;5112805;28;20204;-52
2022/07/24 07:15:18;;;;;;;4.03;3.20;;;28.10;99.90;;;;;;5111281;28;20207;-53
2022/07/24 07:17:47;;;;;;;4.03;3.45;;;28.50;99.90;;;;;;5105163;28;20203;-52
2022/07/24 07:20:15;;;;;;;5.68;4.60;;;28.70;99.90;;;;;;5110647;28;20227;-52
2022/07/24 07:22:43;;;;;;;4.82;2.92;;;29.00;99.90;;;;;;5110844;28;20237;-52
2022/07/24 07:25:13;;;;;;;4.68;3.00;;;29.20;99.90;;;;;;5110255;28;20204;-53
2022/07/24 07:27:41;;;;;;;3.47;2.80;;;29.20;99.90;;;;;;5110293;28;20273;-52
2022/07/24 07:30:12;;;;;;;3.20;2.85;;;29.30;99.90;;;;;;5110936;28;20196;-52
2022/07/24 07:32:41;;;;;;;4.18;3.08;;;29.50;99.90;;;;;;5110016;28;20694;-52
2022/07/24 07:35:09;;;;;;;3.28;2.60;;;29.40;99.90;;;;;;5110902;28;20254;-52
2022/07/24 07:37:49;;;;;;;2.88;2.55;;;29.60;99.90;;;;;;5110351;28;20196;-52
2022/07/24 07:40:19;;;;;;;2.92;2.53;;;29.60;99.90;;;;;;5111037;28;20250;-52
2022/07/24 07:42:47;;;;;;;3.42;2.70;;;29.60;99.90;;;;;;5111399;28;20215;-52
2022/07/24 07:45:15;;;;;;;3.65;2.85;;;29.50;99.90;;;;;;5110577;28;20207;-51
2022/07/24 07:47:43;;;;;;;2.72;2.53;;;29.50;99.90;;;;;;5110592;28;20252;-52
2022/07/24 07:50:12;;;;;;;3.85;3.05;;;29.60;99.90;;;;;;5110952;28;20614;-52
2022/07/24 07:52:41;;;;;;;4.85;3.10;;;29.50;99.90;;;;;;5110366;28;20679;-53
2022/07/24 07:55:10;;;;;;;4.28;2.92;;;29.60;99.90;;;;;;5111287;28;20207;-53
2022/07/24 07:57:43;;;;;;;4.15;3.22;;;29.50;99.90;;;;;;5110643;28;20239;-52
2022/07/24 08:00:31;;;;;;;4.88;3.00;;;29.70;99.90;;;;;;5110703;28;20538;-52
2022/07/24 08:02:59;;;;;;;5.78;3.13;;;29.70;99.90;;;;;;5110048;28;20302;-52
2022/07/24 08:05:28;;;;;;;3.40;3.03;;;29.70;99.90;;;;;;5110070;28;20576;-53
2022/07/24 08:07:56;;;;;;;4.22;3.45;;;29.80;99.90;;;;;;5109930;28;20208;-51
2022/07/24 08:10:25;;;;;;;3.70;3.40;;;30.00;99.90;;;;;;5110944;28;20203;-52
2022/07/24 08:12:54;;;;;;;3.65;2.97;;;29.80;99.30;;;;;;5110195;28;20260;-52
2022/07/24 08:15:23;;;;;;;5.15;3.40;;;29.30;99.10;;;;;;5110265;28;20208;-52
2022/07/24 08:17:53;;;;;;;3.92;3.55;;;29.20;99.40;;;;;;5110717;28;20722;-52
2022/07/24 08:20:21;;;;;;;5.25;4.30;;;29.00;99.90;;;;;;5110188;28;20227;-52
2022/07/24 08:22:50;;;;;;;4.97;3.70;;;28.90;99.70;;;;;;5110189;28;20565;-52
2022/07/24 08:25:18;;;;;;;4.55;4.15;;;28.70;99.90;;;;;;5110381;28;20207;-52
2022/07/24 08:27:47;;;;;;;5.32;3.70;;;28.70;99.60;;;;;;5110621;28;20261;-52
2022/07/24 08:30:16;;;;;;;4.75;4.03;;;28.70;99.90;;;;;;5110387;28;20207;-52
2022/07/24 08:32:45;;;;;;;4.07;3.67;;;28.60;99.70;;;;;;5110096;28;20394;-52
2022/07/24 08:35:14;;;;;;;4.72;3.97;;;28.60;99.70;;;;;;5109840;28;20207;-52
2022/07/24 08:37:43;;;;;;;4.30;3.97;;;28.60;99.90;;;;;;5109573;28;20231;-52
2022/07/24 08:40:12;;;;;;;5.53;4.18;;;28.50;99.80;;;;;;5110509;28;20207;-51
2022/07/24 08:42:41;;;;;;;4.85;3.97;;;28.50;99.40;;;;;;5110148;28;20223;-52
2022/07/24 08:45:10;;;;;;;4.20;3.80;;;28.40;99.90;;;;;;5109948;28;20672;-52
2022/07/24 08:47:41;;;;;;;4.53;4.05;;;28.40;99.90;;;;;;5109378;28;20281;-51
2022/07/24 08:50:11;;;;;;;5.43;4.28;;;28.50;99.90;;;;;;5109868;28;20203;-52
2022/07/24 08:52:39;;;;;;;4.88;4.38;;;28.40;99.90;;;;;;5109369;28;20237;-52
2022/07/24 08:55:12;;;;;;;5.47;4.47;;;28.30;99.70;;;;;;5110163;28;20199;-51
2022/07/24 08:57:41;;;;;;;4.85;4.00;;;28.30;99.90;;;;;;5110110;28;20219;-52
2022/07/24 09:00:09;;;;;;;4.97;4.45;;;28.20;99.90;;;;;;5110207;28;20211;-51
2022/07/24 09:02:39;;;;;;;6.18;4.18;;;28.30;99.80;;;;;;5109278;28;20303;-52
2022/07/24 09:05:09;;;;;;;5.13;4.63;;;28.40;99.90;;;;;;5109835;28;20200;-51
2022/07/24 09:07:37;;;;;;;4.75;4.35;;;28.30;99.40;;;;;;5100964;28;20714;-52
2022/07/24 09:10:07;;;;;;;6.50;4.88;;;28.30;99.90;;;;;;5109419;28;20211;-52
2022/07/24 09:12:38;;;;;;;5.07;4.57;;;28.10;99.90;;;;;;5109040;28;20711;-52
2022/07/24 09:15:13;;;;;;;4.65;4.25;;;28.20;99.20;;;;;;5108757;28;20199;-51
2022/07/24 09:17:51;;;;;;;5.50;4.20;;;28.30;99.90;;;;;;5109226;28;20256;-52
2022/07/24 09:20:20;;;;;;;5.15;4.45;;;28.30;99.50;;;;;;5109541;28;20221;-52
2022/07/24 09:22:49;;;;;;;5.00;4.50;;;28.30;99.10;;;;;;5109287;28;20258;-52
2022/07/24 09:25:19;;;;;;;5.95;4.40;;;28.40;99.90;;;;;;5109673;28;20261;-52
2022/07/24 09:27:49;;;;;;;6.38;4.65;;;28.50;99.90;;;;;;5109411;28;20211;-52
2022/07/24 09:30:29;;;;;;;5.20;4.70;;;28.50;99.00;;;;;;5109922;28;20208;-52
2022/07/24 09:33:00;;;;;;;11.43;5.00;;;28.40;98.60;;;;;;5109597;28;20199;-52
2022/07/24 09:35:34;;;;;;;6.25;4.68;;;28.30;99.80;;;;;;5109764;28;20694;-52
2022/07/24 09:38:04;;;;;;;6.55;4.82;;;28.30;99.40;;;;;;5108501;28;20211;-52
2022/07/24 09:40:33;;;;;;;5.63;4.35;;;28.40;99.40;;;;;;5109311;28;20253;-52
2022/07/24 09:43:19;;;;;;;5.68;4.95;;;28.40;99.80;;;;;;5108889;28;20228;-52
2022/07/24 09:45:54;;;;;;;8.65;4.80;;;28.40;99.90;;;;;;5109278;28;20223;-52
2022/07/24 09:48:26;;;;;;;5.72;4.93;;;28.40;99.90;;;;;;5109942;28;20239;-52
2022/07/24 09:50:56;;;;;;;5.40;4.40;;;28.30;99.90;;;;;;5113948;28;20203;-52
2022/07/24 09:53:26;;;;;;;6.43;5.30;;;28.50;99.90;;;;;;5113473;28;20623;-55
2022/07/24 09:55:59;;;;;;;5.38;4.60;;;28.40;98.60;;;;;;5113901;28;20239;-52
2022/07/24 09:58:28;;;;;;;4.93;4.40;;;28.40;99.40;;;;;;5113132;28;20230;-52
2022/07/24 10:00:57;;;;;;;5.30;4.80;;;28.40;99.90;;;;;;5113056;28;20212;-52
2022/07/24 10:03:29;;;;;;;5.85;5.20;;;28.50;99.90;;;;;;5113211;28;20322;-52
2022/07/24 10:06:01;;;;;;;5.28;4.78;;;28.40;99.70;;;;;;5112536;28;20637;-52
2022/07/24 10:08:30;;;;;;;5.72;5.07;;;28.50;99.90;;;;;;5112791;28;20265;-52
2022/07/24 10:10:59;;;;;;;5.63;5.13;;;28.40;99.60;;;;;;5112757;28;20257;-52
2022/07/24 10:13:28;;;;;;;7.28;5.55;;;28.40;99.90;;;;;;5112232;28;20264;-52
2022/07/24 10:16:17;;;;;;;5.88;5.22;;;28.50;99.10;;;;;;5112919;28;20262;-52
2022/07/24 10:18:50;;;;;;;5.85;5.35;;;28.50;99.90;;;;;;5101749;28;20212;-52
2022/07/24 10:21:20;;;;;;;6.30;4.95;;;28.50;97.80;;;;;;5112434;28;20362;-52
2022/07/24 10:24:21;;;;;;;5.60;5.10;;;28.40;99.90;;;;;;5112325;28;20204;-52
2022/07/24 10:26:51;;;;;;;5.70;5.20;;;28.60;99.90;;;;;;5108309;28;20273;-52
2022/07/24 10:29:21;;;;;;;5.55;4.88;;;28.60;99.90;;;;;;5112016;28;20252;-52
2022/07/24 10:31:51;;;;;;;5.40;4.90;;;28.60;99.90;;;;;;5112745;28;20618;-52
2022/07/24 10:34:31;;;;;;;6.68;5.25;;;28.60;98.50;;;;;;5112482;28;20208;-52
2022/07/24 10:37:05;;;;;;;5.68;5.00;;;28.70;99.70;;;;;;5112222;28;20287;-53
2022/07/24 10:39:43;;;;;;;5.82;5.30;;;28.60;99.40;;;;;;5112655;28;20207;-52
2022/07/24 10:42:11;;;;;;;6.20;5.55;;;28.70;99.50;;;;;;5112848;28;20211;-52
2022/07/24 10:44:39;;;;;;;5.32;4.93;;;28.70;99.90;;;;;;5112055;28;20283;-52
2022/07/24 10:47:12;;;;;;;6.32;5.72;;;28.60;99.60;;;;;;5112025;28;20316;-52
2022/07/24 10:49:47;;;;;;;6.97;4.97;;;28.60;98.50;;;;;;5100135;28;20208;-52
2022/07/24 10:52:25;;;;;;;5.70;5.20;;;28.60;99.90;;;;;;5110302;28;20203;-52
2022/07/24 10:55:26;;;;;;;5.72;5.13;;;28.60;98.80;;;;;;5112384;28;20615;-52
2022/07/24 10:58:12;;;;;;;5.35;4.90;;;28.70;99.90;;;;;;5112756;28;20199;-51
2022/07/24 11:00:44;;;;;;;5.85;5.25;;;28.90;99.80;;;;;;5111442;28;20203;-52
2022/07/24 11:03:19;;;;;;;6.55;5.75;;;28.80;98.50;;;;;;5111516;28;20224;-52
2022/07/24 11:08:42;;;;;;;6.57;5.32;;;28.80;98.60;;;;;;5106311;27;20598;-51
2022/07/24 11:11:14;;;;;;;5.75;5.15;;;28.60;97.70;;;;;;5106923;28;20207;-51
2022/07/24 11:13:50;;;;;;;5.93;5.22;;;28.70;99.40;;;;;;5106099;28;20207;-50
2022/07/24 11:16:21;;;;;;;6.45;5.30;;;28.70;99.10;;;;;;5077934;28;20777;-52
2022/07/24 11:19:30;;;;;;;5.57;5.07;;;28.70;98.00;;;;;;5106963;28;20233;-51
2022/07/24 11:22:09;;;;;;;6.55;4.97;;;28.70;99.00;;;;;;5084596;28;20204;-51
2022/07/24 11:25:03;;;;;;;7.03;5.15;;;28.80;98.60;;;;;;5105454;28;20757;-52
2022/07/24 11:27:52;;;;;;;5.78;5.20;;;28.80;98.70;;;;;;5105866;28;20250;-51
2022/07/24 11:30:21;;;;;;;6.97;5.20;;;29.00;99.90;;;;;;5107331;28;20249;-51
2022/07/24 11:32:49;;;;;;;6.53;5.22;;;29.00;98.60;;;;;;5105647;28;20600;-52
2022/07/24 11:35:17;;;;;;;6.50;5.18;;;29.00;97.80;;;;;;5106626;28;20204;-52
2022/07/24 11:37:46;;;;;;;5.75;5.20;;;29.00;98.00;;;;;;5106109;28;20207;-52
2022/07/24 11:40:17;;;;;;;5.13;4.60;;;28.90;97.00;;;;;;5106690;28;20223;-51
2022/07/24 11:42:45;;;;;;;5.43;4.93;;;29.00;99.60;;;;;;5106523;28;20579;-51
2022/07/24 11:45:13;;;;;;;5.57;4.85;;;29.00;97.90;;;;;;5105344;28;20577;-52
2022/07/24 11:47:42;;;;;;;5.00;4.60;;;29.00;97.30;;;;;;5094147;28;20265;-51
2022/07/24 11:50:10;;;;;;;6.22;4.88;;;28.90;98.30;;;;;;5106453;28;20204;-51
2022/07/24 11:52:40;;;;;;;5.75;4.40;;;29.00;98.60;;;;;;5105946;28;20204;-51
2022/07/24 11:55:11;;;;;;;5.28;4.80;;;29.00;97.60;;;;;;5106501;28;20575;-52
2022/07/24 11:57:46;;;;;;;6.13;5.00;;;29.10;99.10;;;;;;5105369;28;20231;-51
2022/07/24 12:00:35;;;;;;;5.25;4.72;;;29.10;97.90;;;;;;5106003;28;20242;-52
2022/07/24 12:03:03;;;;;;;5.75;5.05;;;28.90;97.20;;;;;;5092179;28;20200;-51
2022/07/24 12:05:33;;;;;;;7.93;4.97;;;29.00;97.30;;;;;;5100478;28;20601;-51
2022/07/24 12:08:04;;;;;;;5.35;4.93;;;28.90;97.20;;;;;;5105401;28;20258;-52
2022/07/24 12:10:32;;;;;;;4.95;4.45;;;29.00;99.00;;;;;;5091025;28;20208;-52
2022/07/24 12:13:02;;;;;;;5.90;5.00;;;29.00;96.90;;;;;;5091593;28;20204;-51
2022/07/24 12:15:30;;;;;;;5.60;5.03;;;29.00;97.50;;;;;;5079278;28;20270;-51
2022/07/24 12:18:00;;;;;;;5.10;4.68;;;28.90;97.50;;;;;;5083067;28;20354;-52
2022/07/24 12:20:31;;;;;;;5.55;4.97;;;28.90;98.60;;;;;;5071346;28;20262;-52
2022/07/24 12:23:01;;;;;;;7.05;5.13;;;28.90;97.00;;;;;;5070965;28;20197;-51
2022/07/24 12:25:30;;;;;;;5.60;5.10;;;29.00;98.30;;;;;;5071911;28;20255;-52
2022/07/24 12:28:07;;;;;;;5.85;5.22;;;29.00;96.80;;;;;;5059453;28;20270;-51
2022/07/24 12:30:38;;;;;;;4.97;4.50;;;28.80;96.50;;;;;;5070565;28;20212;-51
2022/07/24 12:33:07;;;;;;;6.95;5.13;;;28.80;97.80;;;;;;5070969;28;20593;-52
2022/07/24 12:35:53;;;;;;;5.38;4.88;;;28.90;97.60;;;;;;5061625;28;20209;-51
2022/07/24 12:38:26;;;;;;;5.22;4.80;;;28.90;96.70;;;;;;5056454;28;20212;-51
2022/07/24 12:41:03;;;;;;;5.80;5.22;;;28.80;96.20;;;;;;5077133;28;20257;-52
2022/07/24 12:43:33;;;;;;;5.15;4.57;;;28.90;98.40;;;;;;5090760;28;20216;-52
2022/07/24 12:46:09;;;;;;;5.30;4.80;;;29.00;98.70;;;;;;5082697;28;20251;-51
2022/07/24 12:48:37;;;;;;;6.00;5.15;;;29.10;98.30;;;;;;5087193;28;20219;-51
2022/07/24 12:51:09;;;;;;;6.15;5.47;;;29.20;97.70;;;;;;5091052;28;20699;-51
2022/07/24 12:53:40;;;;;;;5.55;4.90;;;29.20;97.20;;;;;;5090769;28;20214;-51
2022/07/24 12:56:11;;;;;;;4.95;4.45;;;29.30;97.70;;;;;;5090732;28;20271;-51
2022/07/24 12:58:53;;;;;;;5.47;5.07;;;29.20;96.70;;;;;;5085912;28;20259;-52
2022/07/24 13:01:22;;;;;;;5.75;5.13;;;29.20;96.50;;;;;;5084568;28;20223;-52
2022/07/24 13:03:55;;;;;;;5.40;4.90;;;29.10;96.70;;;;;;5078902;28;20227;-51